Kovar, Texas
Current Conditions -  °F | °C
As of 10:15 AM on Tuesday 21 Oct 2014 (Local Time) from K3T5 Reporting Station
Haze Haze  
Wind Chill: 70°   Ceiling: Unl
Heat Index: 70°   Visibility: 5mi
Dew Point: 61°   Wind: 0mph
Humidity: 73%   Direction: NA
Pressure: 30.08"   Gusts: NA
Location:  29.7626°N, 97.1228°W
Report Text: K3T5 211515Z AUTO 00000KT 5SM HZ CLR 21/16 A3008 RMK AO2 T02110161
Loading
Personal Weather Stations






























Interactive Weather Map
Tropical Storm Tracking
New forecast layout! Learn more

10-Day Weather Forecast

Advertisements
Track Severe Weather on mobile